createdAt,value
2023-03-29T00:01:37.354Z,1.01
2023-03-29T00:04:41.450Z,0.97
2023-03-29T00:07:44.342Z,0.98
2023-03-29T00:10:49.727Z,0.94
2023-03-29T00:13:53.285Z,0.84
2023-03-29T00:16:56.351Z,0.89
2023-03-29T00:19:59.330Z,0.83
2023-03-29T00:23:02.316Z,0.77
2023-03-29T00:26:07.813Z,0.73
2023-03-29T00:29:11.066Z,0.67
2023-03-29T00:32:14.759Z,0.53
2023-03-29T00:35:17.654Z,0.25
2023-03-29T00:38:20.712Z,0.16
2023-03-29T00:41:23.766Z,0.07
2023-03-29T00:45:04.786Z,-0.15
2023-03-29T00:48:13.844Z,-0.01
2023-03-29T00:51:19.018Z,0.07
2023-03-29T00:54:21.756Z,0.22
2023-03-29T00:57:27.710Z,0.26
2023-03-29T01:00:37.167Z,0.29
2023-03-29T01:03:49.543Z,0.17
2023-03-29T01:07:24.538Z,0.11
2023-03-29T01:10:37.833Z,0.12
2023-03-29T01:14:00.152Z,0.03
2023-03-29T01:17:04.650Z,-0.09
2023-03-29T01:20:17.699Z,-0.13
2023-03-29T01:23:38.398Z,-0.10
2023-03-29T01:26:44.086Z,-0.12
2023-03-29T01:29:57.408Z,-0.23
2023-03-29T01:33:10.676Z,-0.35
2023-03-29T01:36:19.293Z,-0.54
2023-03-29T01:39:22.249Z,-0.52
2023-03-29T01:42:46.886Z,-0.55
2023-03-29T01:46:06.244Z,-0.45
2023-03-29T01:49:22.535Z,-0.44
2023-03-29T01:52:35.229Z,-0.11
2023-03-29T01:55:43.094Z,-0.10
2023-03-29T01:58:51.356Z,-0.10
2023-03-29T02:02:00.005Z,-0.09
2023-03-29T02:05:04.131Z,-0.03
2023-03-29T02:08:10.992Z,-0.05
2023-03-29T02:11:14.247Z,-0.03
2023-03-29T02:14:17.143Z,0.00
2023-03-29T02:17:25.288Z,0.01
2023-03-29T02:20:33.274Z,0.06
2023-03-29T02:23:45.474Z,0.05
2023-03-29T02:26:49.500Z,0.08
2023-03-29T02:29:52.553Z,0.19
2023-03-29T02:33:35.257Z,0.26
2023-03-29T02:36:43.345Z,0.26
2023-03-29T02:39:49.854Z,0.34
2023-03-29T02:42:56.119Z,0.38
2023-03-29T02:45:59.305Z,0.47
2023-03-29T02:49:02.260Z,0.48
2023-03-29T02:52:19.402Z,0.57
2023-03-29T02:55:25.081Z,0.69
2023-03-29T02:58:28.980Z,0.72
2023-03-29T03:01:32.064Z,0.67
2023-03-29T03:04:35.829Z,0.59
2023-03-29T03:07:40.715Z,0.63
2023-03-29T03:10:43.949Z,0.57
2023-03-29T03:13:46.802Z,0.48
2023-03-29T03:16:50.235Z,0.31
2023-03-29T03:19:53.485Z,0.36
2023-03-29T03:22:57.607Z,0.27
2023-03-29T03:26:00.825Z,0.27
2023-03-29T03:29:05.175Z,0.25
2023-03-29T03:32:32.819Z,0.15
2023-03-29T03:36:02.966Z,0.16
2023-03-29T03:39:07.397Z,0.02
2023-03-29T03:42:10.287Z,0.07
2023-03-29T03:45:17.671Z,-0.20
2023-03-29T03:48:39.251Z,-0.39
2023-03-29T03:51:53.246Z,-0.50
2023-03-29T03:54:56.155Z,-0.40
2023-03-29T03:58:17.995Z,-0.44
2023-03-29T04:01:20.838Z,-0.31
2023-03-29T04:04:34.914Z,-0.32
2023-03-29T04:07:54.387Z,-0.39
2023-03-29T04:11:14.121Z,-0.35
2023-03-29T04:14:18.005Z,-0.40
2023-03-29T04:17:37.113Z,-0.40
2023-03-29T04:21:00.661Z,-0.26
2023-03-29T04:24:04.987Z,-0.20
2023-03-29T04:27:10.972Z,-0.24
2023-03-29T04:30:13.854Z,-0.13
2023-03-29T04:33:54.678Z,-0.03
2023-03-29T04:36:59.045Z,0.03
2023-03-29T04:40:04.112Z,0.07
2023-03-29T04:43:18.406Z,0.27
2023-03-29T04:46:33.418Z,0.27
2023-03-29T04:49:41.784Z,0.19
2023-03-29T04:52:50.926Z,0.22
2023-03-29T04:55:55.731Z,-0.01
2023-03-29T04:59:18.816Z,0.12
2023-03-29T05:02:22.198Z,-0.01
2023-03-29T05:05:27.215Z,-0.02
2023-03-29T05:08:30.389Z,-0.12
2023-03-29T05:11:53.456Z,0.04
2023-03-29T05:14:57.926Z,0.18
2023-03-29T05:18:02.839Z,0.40
2023-03-29T05:21:07.766Z,0.55
2023-03-29T05:24:12.373Z,0.46
2023-03-29T05:27:27.963Z,0.36
2023-03-29T05:30:38.762Z,0.74
2023-03-29T05:33:51.384Z,0.78
2023-03-29T05:36:54.304Z,0.85
2023-03-29T05:40:05.617Z,0.97
2023-03-29T05:43:13.561Z,1.21
2023-03-29T05:46:16.649Z,1.26
2023-03-29T05:49:25.633Z,1.08
2023-03-29T05:52:43.245Z,1.01
2023-03-29T05:55:46.837Z,1.25
2023-03-29T05:58:58.911Z,1.63
2023-03-29T06:02:03.977Z,1.84
2023-03-29T06:05:08.174Z,2.09
2023-03-29T06:08:33.560Z,2.10
2023-03-29T06:11:51.166Z,2.27
2023-03-29T06:15:07.315Z,2.38
2023-03-29T06:18:25.593Z,2.56
2023-03-29T06:21:28.658Z,2.66
2023-03-29T06:24:32.459Z,3.11
2023-03-29T06:27:40.819Z,2.97
2023-03-29T06:30:46.381Z,3.04
2023-03-29T06:33:49.910Z,3.40
2023-03-29T06:37:29.246Z,3.68
2023-03-29T06:40:44.822Z,3.70
2023-03-29T06:43:47.835Z,4.15
2023-03-29T06:46:51.907Z,4.17
2023-03-29T06:49:54.855Z,4.20
2023-03-29T06:53:08.259Z,4.43
2023-03-29T06:56:11.433Z,4.67
2023-03-29T06:59:14.243Z,4.81
2023-03-29T07:02:29.292Z,4.87
2023-03-29T07:05:45.004Z,4.94
2023-03-29T07:08:52.566Z,5.16
2023-03-29T07:12:31.138Z,5.36
2023-03-29T07:15:37.047Z,5.36
2023-03-29T07:19:06.261Z,5.71
2023-03-29T07:22:32.199Z,5.92
2023-03-29T07:25:38.515Z,6.17
2023-03-29T07:28:41.510Z,6.43
2023-03-29T07:31:44.478Z,6.39
2023-03-29T07:35:12.272Z,6.41
2023-03-29T07:38:15.733Z,6.11
2023-03-29T07:41:24.033Z,5.97
2023-03-29T07:44:33.536Z,6.06
2023-03-29T07:47:36.747Z,6.46
2023-03-29T07:50:39.781Z,6.58
2023-03-29T07:53:43.825Z,6.75
2023-03-29T07:57:07.032Z,7.26
2023-03-29T08:00:16.647Z,7.23
2023-03-29T08:03:30.421Z,7.55
2023-03-29T08:06:33.863Z,7.00
2023-03-29T08:09:37.590Z,6.99
2023-03-29T08:12:42.833Z,7.25
2023-03-29T08:15:48.690Z,7.79
2023-03-29T08:19:07.303Z,7.75
2023-03-29T08:22:25.405Z,8.00
2023-03-29T08:26:00.591Z,8.12
2023-03-29T08:29:04.165Z,8.21
2023-03-29T08:32:07.451Z,8.07
2023-03-29T08:35:10.789Z,8.11
2023-03-29T08:38:28.086Z,8.33
2023-03-29T08:41:51.186Z,8.32
2023-03-29T08:44:56.746Z,8.33
2023-03-29T08:48:02.708Z,8.11
2023-03-29T08:51:21.631Z,8.36
2023-03-29T08:54:36.179Z,8.45
2023-03-29T08:57:48.935Z,8.62
2023-03-29T09:01:06.272Z,8.25
2023-03-29T09:04:27.651Z,8.53
2023-03-29T09:07:58.211Z,8.40
2023-03-29T09:11:07.299Z,8.56
2023-03-29T09:14:36.206Z,8.80
2023-03-29T09:17:53.335Z,8.90
2023-03-29T09:21:05.461Z,8.76
2023-03-29T09:24:51.051Z,9.01
2023-03-29T09:28:06.005Z,9.71
2023-03-29T09:31:26.793Z,10.04
2023-03-29T09:34:54.767Z,10.02
2023-03-29T09:37:58.703Z,10.39
2023-03-29T09:41:14.975Z,9.90
2023-03-29T09:44:30.854Z,9.86
2023-03-29T09:47:50.060Z,9.83
2023-03-29T09:50:53.378Z,10.39
2023-03-29T09:53:57.701Z,10.84
2023-03-29T09:57:24.132Z,10.43
2023-03-29T10:00:26.973Z,10.38
2023-03-29T10:03:32.420Z,11.35
2023-03-29T10:07:01.488Z,11.71
2023-03-29T10:10:10.628Z,11.71
2023-03-29T10:13:23.294Z,11.87
2023-03-29T10:16:50.002Z,12.26
2023-03-29T10:19:57.967Z,11.70
2023-03-29T10:23:00.917Z,11.80
2023-03-29T10:26:07.949Z,11.83
2023-03-29T10:29:13.337Z,11.95
2023-03-29T10:32:32.560Z,12.56
2023-03-29T10:35:41.842Z,12.52
2023-03-29T10:38:45.242Z,12.39
2023-03-29T10:41:52.664Z,12.50
2023-03-29T10:44:58.280Z,13.10
2023-03-29T10:48:01.510Z,12.68
2023-03-29T10:51:06.151Z,12.15
2023-03-29T10:54:14.973Z,12.71
2023-03-29T10:57:51.234Z,12.81
2023-03-29T11:00:58.168Z,12.54
2023-03-29T11:04:12.726Z,12.38
2023-03-29T11:07:43.293Z,12.43
2023-03-29T11:11:07.700Z,12.91
2023-03-29T11:14:38.988Z,12.97
2023-03-29T11:17:57.659Z,13.15
2023-03-29T11:21:12.690Z,13.93
2023-03-29T11:24:34.111Z,13.72
2023-03-29T11:27:37.043Z,13.18
2023-03-29T11:30:52.034Z,12.80
2023-03-29T11:33:54.764Z,12.23
2023-03-29T11:37:00.158Z,12.04
2023-03-29T11:40:39.372Z,12.33
2023-03-29T11:43:54.904Z,12.86
2023-03-29T11:47:11.058Z,12.61
2023-03-29T11:50:56.396Z,13.06
2023-03-29T11:54:17.546Z,12.85
2023-03-29T11:57:33.759Z,12.08
2023-03-29T12:00:42.674Z,12.21
2023-03-29T12:04:01.969Z,12.45
2023-03-29T12:07:32.361Z,11.36
2023-03-29T12:10:42.158Z,11.04
2023-03-29T12:13:52.706Z,11.18
2023-03-29T12:17:10.075Z,10.76
2023-03-29T12:20:23.491Z,11.17
2023-03-29T12:23:31.147Z,11.47
2023-03-29T12:26:51.912Z,11.43
2023-03-29T12:30:34.409Z,11.24
2023-03-29T12:34:02.092Z,11.34
2023-03-29T12:38:19.390Z,11.26
2023-03-29T12:41:45.758Z,11.50
2023-03-29T12:45:19.454Z,11.16
2023-03-29T12:48:28.758Z,11.02
2023-03-29T12:51:33.594Z,12.12
2023-03-29T12:54:36.342Z,11.81
2023-03-29T12:57:45.162Z,11.74
2023-03-29T13:00:56.243Z,11.82
2023-03-29T13:04:04.026Z,12.72
2023-03-29T13:07:15.182Z,12.64
2023-03-29T13:10:52.235Z,12.81
2023-03-29T13:13:55.907Z,11.75
2023-03-29T13:17:17.852Z,12.35
2023-03-29T13:20:43.007Z,12.80
2023-03-29T13:24:10.814Z,12.43
2023-03-29T13:28:01.745Z,12.50
2023-03-29T13:31:08.780Z,12.79
2023-03-29T13:34:20.363Z,12.86
2023-03-29T13:37:23.023Z,13.09
2023-03-29T13:40:28.589Z,13.07
2023-03-29T13:43:52.350Z,13.20
2023-03-29T13:47:04.441Z,13.00
2023-03-29T13:50:19.658Z,12.65
2023-03-29T13:53:31.230Z,12.86
2023-03-29T13:56:57.159Z,12.93
2023-03-29T14:00:17.921Z,12.95
2023-03-29T14:03:30.042Z,12.41
2023-03-29T14:06:36.797Z,12.56
2023-03-29T14:09:45.329Z,12.66
2023-03-29T14:12:48.855Z,12.66
2023-03-29T14:16:04.716Z,12.57
2023-03-29T14:19:41.841Z,12.49
2023-03-29T14:22:45.739Z,12.61
2023-03-29T14:25:48.475Z,12.48
2023-03-29T14:28:54.099Z,12.11
2023-03-29T14:31:56.814Z,12.32
2023-03-29T14:35:00.710Z,12.45
2023-03-29T14:38:03.890Z,12.56
2023-03-29T14:41:07.609Z,12.39
2023-03-29T14:44:11.515Z,12.39
2023-03-29T14:47:31.785Z,12.15
2023-03-29T14:50:36.562Z,12.03
2023-03-29T14:53:41.820Z,11.71
2023-03-29T14:56:45.655Z,11.75
2023-03-29T14:59:59.721Z,11.74
2023-03-29T15:03:03.079Z,11.50
2023-03-29T15:06:06.799Z,11.66
2023-03-29T15:09:19.470Z,11.75
2023-03-29T15:12:22.698Z,11.83
2023-03-29T15:15:25.901Z,11.50
2023-03-29T15:18:34.540Z,11.52
2023-03-29T15:21:38.950Z,11.63
2023-03-29T15:24:48.945Z,11.52
2023-03-29T15:27:57.229Z,11.43
2023-03-29T15:31:20.261Z,11.42
2023-03-29T15:34:28.201Z,11.26
2023-03-29T15:37:31.730Z,11.09
2023-03-29T15:40:34.584Z,11.21
2023-03-29T15:43:37.551Z,11.08
2023-03-29T15:46:40.243Z,11.06
2023-03-29T15:49:43.311Z,11.04
2023-03-29T15:52:46.016Z,11.05
2023-03-29T15:55:52.303Z,10.95
2023-03-29T15:58:55.152Z,10.89
2023-03-29T16:01:58.926Z,10.78
2023-03-29T16:05:01.882Z,10.70
2023-03-29T16:08:04.731Z,10.66
2023-03-29T16:11:07.513Z,10.63
2023-03-29T16:14:24.285Z,10.66
2023-03-29T16:17:27.047Z,10.63
2023-03-29T16:20:29.792Z,10.51
2023-03-29T16:23:32.863Z,10.44
2023-03-29T16:26:35.660Z,10.47
2023-03-29T16:29:38.361Z,10.39
2023-03-29T16:32:41.756Z,10.40
2023-03-29T16:35:44.610Z,10.26
2023-03-29T16:38:47.433Z,10.17
2023-03-29T16:41:50.530Z,10.11
2023-03-29T16:44:54.673Z,10.08
2023-03-29T16:47:57.570Z,9.99
2023-03-29T16:51:00.894Z,9.93
2023-03-29T16:54:04.211Z,9.91
2023-03-29T16:57:07.908Z,9.91
2023-03-29T17:00:15.809Z,9.87
2023-03-29T17:03:18.866Z,9.88
2023-03-29T17:06:22.037Z,9.71
2023-03-29T17:09:25.187Z,9.64
2023-03-29T17:12:28.940Z,9.58
2023-03-29T17:15:31.949Z,9.63
2023-03-29T17:18:34.950Z,9.64
2023-03-29T17:21:37.874Z,9.67
2023-03-29T17:24:40.670Z,9.67
2023-03-29T17:27:43.495Z,9.61
2023-03-29T17:30:46.521Z,9.58
2023-03-29T17:33:52.161Z,9.56
2023-03-29T17:36:57.954Z,9.53
2023-03-29T17:40:01.104Z,9.49
2023-03-29T17:43:04.167Z,9.55
2023-03-29T17:46:07.205Z,9.61
2023-03-29T17:49:10.132Z,9.58
2023-03-29T17:52:12.993Z,9.61
2023-03-29T17:55:16.388Z,9.59
2023-03-29T17:58:19.654Z,9.58
2023-03-29T18:01:23.917Z,9.49
2023-03-29T18:04:27.087Z,9.42
2023-03-29T18:07:31.398Z,9.52
2023-03-29T18:10:35.147Z,9.49
2023-03-29T18:13:40.028Z,9.46
2023-03-29T18:16:42.998Z,9.39
2023-03-29T18:19:46.576Z,9.40
2023-03-29T18:22:49.556Z,9.44
2023-03-29T18:25:52.319Z,9.41
2023-03-29T18:28:55.562Z,9.44
2023-03-29T18:32:03.455Z,9.39
2023-03-29T18:35:06.947Z,9.51
2023-03-29T18:38:09.726Z,9.46
2023-03-29T18:41:14.143Z,9.33
2023-03-29T18:44:17.309Z,9.36
2023-03-29T18:47:20.401Z,9.05
2023-03-29T18:50:23.510Z,9.11
2023-03-29T18:53:26.639Z,9.07
2023-03-29T18:56:29.912Z,9.04
2023-03-29T18:59:32.804Z,9.01
2023-03-29T19:02:36.355Z,8.97
2023-03-29T19:05:40.085Z,8.92
2023-03-29T19:08:42.950Z,8.92
2023-03-29T19:11:48.105Z,8.99
2023-03-29T19:14:51.438Z,8.99
2023-03-29T19:17:54.487Z,8.96
2023-03-29T19:20:57.492Z,8.92
2023-03-29T19:24:04.038Z,8.88
2023-03-29T19:27:10.172Z,8.83
2023-03-29T19:30:14.871Z,8.85
2023-03-29T19:33:18.571Z,8.81
2023-03-29T19:36:22.328Z,8.77
2023-03-29T19:39:26.830Z,8.76
2023-03-29T19:42:30.195Z,8.75
2023-03-29T19:45:33.811Z,8.80
2023-03-29T19:48:37.929Z,8.84
2023-03-29T19:51:42.501Z,8.62
2023-03-29T19:54:45.666Z,8.49
2023-03-29T19:57:48.897Z,8.65
2023-03-29T20:00:53.327Z,8.62
2023-03-29T20:03:56.340Z,8.66
2023-03-29T20:06:59.502Z,8.75
2023-03-29T20:10:02.968Z,8.63
2023-03-29T20:13:06.767Z,8.68
2023-03-29T20:16:13.300Z,8.77
2023-03-29T20:19:17.422Z,8.72
2023-03-29T20:22:20.354Z,8.68
2023-03-29T20:25:23.147Z,8.64
2023-03-29T20:28:26.450Z,8.61
2023-03-29T20:31:30.159Z,8.49
2023-03-29T20:34:33.234Z,8.32
2023-03-29T20:37:36.128Z,8.18
2023-03-29T20:40:40.975Z,7.94
2023-03-29T20:43:43.940Z,7.86
2023-03-29T20:46:54.637Z,7.71
2023-03-29T20:49:57.998Z,7.83
2023-03-29T20:53:04.170Z,8.08
2023-03-29T20:56:06.985Z,8.24
2023-03-29T20:59:12.725Z,8.29
2023-03-29T21:02:21.435Z,8.23
2023-03-29T21:05:28.804Z,7.82
2023-03-29T21:08:31.936Z,7.93
2023-03-29T21:11:34.651Z,7.95
2023-03-29T21:14:38.037Z,8.03
2023-03-29T21:17:41.368Z,8.07
2023-03-29T21:20:44.477Z,8.13
2023-03-29T21:23:47.198Z,8.26
2023-03-29T21:26:51.189Z,8.25
2023-03-29T21:29:54.280Z,8.32
2023-03-29T21:32:57.114Z,8.31
2023-03-29T21:36:00.892Z,8.30
2023-03-29T21:39:04.027Z,8.21
2023-03-29T21:42:07.261Z,8.31
2023-03-29T21:45:10.560Z,8.33
2023-03-29T21:48:13.260Z,8.32
2023-03-29T21:51:16.107Z,8.37
2023-03-29T21:54:18.830Z,8.42
2023-03-29T21:57:22.374Z,8.38
2023-03-29T22:00:25.400Z,8.41
2023-03-29T22:03:28.604Z,8.30
2023-03-29T22:06:31.488Z,8.21
2023-03-29T22:09:35.461Z,8.30
2023-03-29T22:12:39.586Z,8.28
2023-03-29T22:15:42.751Z,8.22
2023-03-29T22:18:49.590Z,8.18
2023-03-29T22:21:52.583Z,8.18
2023-03-29T22:24:55.937Z,8.11
2023-03-29T22:27:58.651Z,8.11
2023-03-29T22:31:03.203Z,8.11
2023-03-29T22:34:06.297Z,8.18
2023-03-29T22:37:08.994Z,8.14
2023-03-29T22:40:13.358Z,8.04
2023-03-29T22:43:16.157Z,8.16
2023-03-29T22:46:20.196Z,8.12
2023-03-29T22:49:23.110Z,8.13
2023-03-29T22:52:25.883Z,8.03
2023-03-29T22:55:28.612Z,8.08
2023-03-29T22:58:31.404Z,7.98
2023-03-29T23:01:34.365Z,7.98
2023-03-29T23:04:38.852Z,7.94
2023-03-29T23:07:41.673Z,7.98
2023-03-29T23:10:46.526Z,7.96
2023-03-29T23:13:49.597Z,7.95
2023-03-29T23:16:52.381Z,8.07
2023-03-29T23:19:55.353Z,8.00
2023-03-29T23:22:59.561Z,8.02
2023-03-29T23:26:02.605Z,8.07
2023-03-29T23:29:05.608Z,8.02
2023-03-29T23:32:08.870Z,8.14
2023-03-29T23:35:11.654Z,8.08
2023-03-29T23:38:14.403Z,7.93
2023-03-29T23:41:17.881Z,7.90
2023-03-29T23:44:20.646Z,7.94
2023-03-29T23:47:23.657Z,8.00
2023-03-29T23:50:28.818Z,7.88
2023-03-29T23:53:32.232Z,7.88
2023-03-29T23:56:35.230Z,7.87
2023-03-29T23:59:38.042Z,7.94
